PILOTS ONLINE: 492    ATC ONLINE: 57

EGDX - MOD St. Athan

Location

IATA DGX
City St. Athan
Country  United Kingdom
Latitude 51° 24' 17" N
Longitude 3° 26' 8" W
Elevation 163 ft
Type Medium Airport

Runways

08/26 5988 ft / 141 ft

Weather

METAR
2014/07/28 15:50
EGDX 281550Z 26008KT 9999 SCT035 22/14 Q1016 BLU
TAF
No TAF available

Outbound flights

Inbound flights